sensor_id;sensor_type;location;lat;lon;timestamp;temperature;humidity
15617;DHT22;7908;51.688;7.130;2023-03-23T00:01:20;10.70;99.90
15617;DHT22;7908;51.688;7.130;2023-03-23T00:03:51;10.70;99.90
15617;DHT22;7908;51.688;7.130;2023-03-23T00:06:20;10.70;99.90
15617;DHT22;7908;51.688;7.130;2023-03-23T00:08:49;10.70;99.90
15617;DHT22;7908;51.688;7.130;2023-03-23T00:11:23;10.70;99.90
15617;DHT22;7908;51.688;7.130;2023-03-23T00:13:56;10.70;99.90
15617;DHT22;7908;51.688;7.130;2023-03-23T00:16:30;10.70;99.90
15617;DHT22;7908;51.688;7.130;2023-03-23T00:19:00;10.70;99.90
15617;DHT22;7908;51.688;7.130;2023-03-23T00:21:30;10.70;99.90
15617;DHT22;7908;51.688;7.130;2023-03-23T00:24:02;10.80;99.90
15617;DHT22;7908;51.688;7.130;2023-03-23T00:26:32;10.70;99.90
15617;DHT22;7908;51.688;7.130;2023-03-23T00:29:01;10.70;99.90
15617;DHT22;7908;51.688;7.130;2023-03-23T00:31:30;10.70;99.90
15617;DHT22;7908;51.688;7.130;2023-03-23T00:33:59;10.70;99.90
15617;DHT22;7908;51.688;7.130;2023-03-23T00:36:30;10.70;99.90
15617;DHT22;7908;51.688;7.130;2023-03-23T00:38:59;10.70;99.90
15617;DHT22;7908;51.688;7.130;2023-03-23T00:41:27;10.70;99.90
15617;DHT22;7908;51.688;7.130;2023-03-23T00:43:55;10.70;99.90
15617;DHT22;7908;51.688;7.130;2023-03-23T00:46:23;10.70;99.90
15617;DHT22;7908;51.688;7.130;2023-03-23T00:48:52;10.70;99.90
15617;DHT22;7908;51.688;7.130;2023-03-23T00:51:20;10.70;99.90
15617;DHT22;7908;51.688;7.130;2023-03-23T00:53:48;10.70;99.90
15617;DHT22;7908;51.688;7.130;2023-03-23T00:56:15;10.80;99.90
15617;DHT22;7908;51.688;7.130;2023-03-23T00:58:43;10.80;99.90
15617;DHT22;7908;51.688;7.130;2023-03-23T01:01:10;10.80;99.90
15617;DHT22;7908;51.688;7.130;2023-03-23T01:03:38;10.80;99.90
15617;DHT22;7908;51.688;7.130;2023-03-23T01:06:09;10.80;99.90
15617;DHT22;7908;51.688;7.130;2023-03-23T01:08:39;10.80;99.90
15617;DHT22;7908;51.688;7.130;2023-03-23T01:11:12;10.80;99.90
15617;DHT22;7908;51.688;7.130;2023-03-23T01:13:40;10.80;99.90
15617;DHT22;7908;51.688;7.130;2023-03-23T01:16:08;10.80;99.90
15617;DHT22;7908;51.688;7.130;2023-03-23T01:18:37;10.80;99.90
15617;DHT22;7908;51.688;7.130;2023-03-23T01:21:07;10.80;99.90
15617;DHT22;7908;51.688;7.130;2023-03-23T01:23:36;10.80;99.90
15617;DHT22;7908;51.688;7.130;2023-03-23T01:26:05;10.90;99.90
15617;DHT22;7908;51.688;7.130;2023-03-23T01:28:33;10.90;99.90
15617;DHT22;7908;51.688;7.130;2023-03-23T01:31:03;10.90;99.90
15617;DHT22;7908;51.688;7.130;2023-03-23T01:33:31;10.90;99.90
15617;DHT22;7908;51.688;7.130;2023-03-23T01:36:03;10.90;99.90
15617;DHT22;7908;51.688;7.130;2023-03-23T01:38:33;10.90;99.90
15617;DHT22;7908;51.688;7.130;2023-03-23T01:41:01;10.90;99.90
15617;DHT22;7908;51.688;7.130;2023-03-23T01:43:30;10.90;99.90
15617;DHT22;7908;51.688;7.130;2023-03-23T01:45:58;10.90;99.90
15617;DHT22;7908;51.688;7.130;2023-03-23T01:48:26;11.00;99.90
15617;DHT22;7908;51.688;7.130;2023-03-23T01:50:57;11.00;99.90
15617;DHT22;7908;51.688;7.130;2023-03-23T01:53:30;11.00;99.90
15617;DHT22;7908;51.688;7.130;2023-03-23T01:56:01;11.00;99.90
15617;DHT22;7908;51.688;7.130;2023-03-23T01:58:31;11.00;99.90
15617;DHT22;7908;51.688;7.130;2023-03-23T02:01:03;11.00;99.90
15617;DHT22;7908;51.688;7.130;2023-03-23T02:03:32;11.00;99.90
15617;DHT22;7908;51.688;7.130;2023-03-23T02:06:02;11.00;99.90
15617;DHT22;7908;51.688;7.130;2023-03-23T02:08:31;11.10;99.90
15617;DHT22;7908;51.688;7.130;2023-03-23T02:11:01;11.10;99.90
15617;DHT22;7908;51.688;7.130;2023-03-23T02:13:30;11.10;99.90
15617;DHT22;7908;51.688;7.130;2023-03-23T02:16:03;11.10;99.90
15617;DHT22;7908;51.688;7.130;2023-03-23T02:18:49;11.10;99.90
15617;DHT22;7908;51.688;7.130;2023-03-23T02:24:59;11.10;99.90
15617;DHT22;7908;51.688;7.130;2023-03-23T02:31:04;11.10;99.90
15617;DHT22;7908;51.688;7.130;2023-03-23T02:33:40;11.10;99.90
15617;DHT22;7908;51.688;7.130;2023-03-23T02:36:18;11.10;99.90
15617;DHT22;7908;51.688;7.130;2023-03-23T02:38:52;11.10;99.90
15617;DHT22;7908;51.688;7.130;2023-03-23T02:41:23;11.10;99.90
15617;DHT22;7908;51.688;7.130;2023-03-23T02:43:52;11.10;99.90
15617;DHT22;7908;51.688;7.130;2023-03-23T02:46:21;11.10;99.90
15617;DHT22;7908;51.688;7.130;2023-03-23T02:48:51;11.10;99.90
15617;DHT22;7908;51.688;7.130;2023-03-23T02:51:21;11.10;99.90
15617;DHT22;7908;51.688;7.130;2023-03-23T02:53:52;11.00;99.90
15617;DHT22;7908;51.688;7.130;2023-03-23T02:56:21;11.00;99.90
15617;DHT22;7908;51.688;7.130;2023-03-23T02:58:50;11.00;99.90
15617;DHT22;7908;51.688;7.130;2023-03-23T03:01:47;11.00;99.90
15617;DHT22;7908;51.688;7.130;2023-03-23T03:04:20;11.00;99.90
15617;DHT22;7908;51.688;7.130;2023-03-23T03:07:01;11.00;99.90
15617;DHT22;7908;51.688;7.130;2023-03-23T03:09:39;11.10;99.90
15617;DHT22;7908;51.688;7.130;2023-03-23T03:12:12;11.10;99.90
15617;DHT22;7908;51.688;7.130;2023-03-23T03:14:47;11.10;99.90
15617;DHT22;7908;51.688;7.130;2023-03-23T03:17:22;11.10;99.90
15617;DHT22;7908;51.688;7.130;2023-03-23T03:19:56;11.10;99.90
15617;DHT22;7908;51.688;7.130;2023-03-23T03:22:26;11.10;99.90
15617;DHT22;7908;51.688;7.130;2023-03-23T03:24:57;11.10;99.90
15617;DHT22;7908;51.688;7.130;2023-03-23T03:27:25;11.00;99.90
15617;DHT22;7908;51.688;7.130;2023-03-23T03:29:56;11.10;99.90
15617;DHT22;7908;51.688;7.130;2023-03-23T03:32:30;11.10;99.90
15617;DHT22;7908;51.688;7.130;2023-03-23T03:35:01;11.00;99.90
15617;DHT22;7908;51.688;7.130;2023-03-23T03:37:34;11.10;99.90
15617;DHT22;7908;51.688;7.130;2023-03-23T03:40:04;11.10;99.90
15617;DHT22;7908;51.688;7.130;2023-03-23T03:42:37;11.10;99.90
15617;DHT22;7908;51.688;7.130;2023-03-23T03:45:06;11.10;99.90
15617;DHT22;7908;51.688;7.130;2023-03-23T03:47:34;11.10;99.90
15617;DHT22;7908;51.688;7.130;2023-03-23T03:50:04;11.10;99.90
15617;DHT22;7908;51.688;7.130;2023-03-23T03:52:31;11.10;99.90
15617;DHT22;7908;51.688;7.130;2023-03-23T03:54:59;11.10;99.90
15617;DHT22;7908;51.688;7.130;2023-03-23T03:57:26;11.10;99.90
15617;DHT22;7908;51.688;7.130;2023-03-23T03:59:54;11.10;99.90
15617;DHT22;7908;51.688;7.130;2023-03-23T04:02:21;11.10;99.90
15617;DHT22;7908;51.688;7.130;2023-03-23T04:04:49;11.10;99.90
15617;DHT22;7908;51.688;7.130;2023-03-23T04:07:19;11.10;99.90
15617;DHT22;7908;51.688;7.130;2023-03-23T04:09:47;11.10;99.90
15617;DHT22;7908;51.688;7.130;2023-03-23T04:12:15;11.10;99.90
15617;DHT22;7908;51.688;7.130;2023-03-23T04:14:43;11.10;99.90
15617;DHT22;7908;51.688;7.130;2023-03-23T04:17:10;11.10;99.90
15617;DHT22;7908;51.688;7.130;2023-03-23T04:19:38;11.10;99.90
15617;DHT22;7908;51.688;7.130;2023-03-23T04:22:05;11.10;99.90
15617;DHT22;7908;51.688;7.130;2023-03-23T04:24:34;11.20;99.90
15617;DHT22;7908;51.688;7.130;2023-03-23T04:27:02;11.20;99.90
15617;DHT22;7908;51.688;7.130;2023-03-23T04:29:29;11.20;99.90
15617;DHT22;7908;51.688;7.130;2023-03-23T04:31:59;11.20;99.90
15617;DHT22;7908;51.688;7.130;2023-03-23T04:34:27;11.20;99.90
15617;DHT22;7908;51.688;7.130;2023-03-23T04:37:00;11.20;99.90
15617;DHT22;7908;51.688;7.130;2023-03-23T04:39:27;11.20;99.90
15617;DHT22;7908;51.688;7.130;2023-03-23T04:41:56;11.20;99.90
15617;DHT22;7908;51.688;7.130;2023-03-23T04:44:27;11.20;99.90
15617;DHT22;7908;51.688;7.130;2023-03-23T04:46:55;11.20;99.90
15617;DHT22;7908;51.688;7.130;2023-03-23T04:49:22;11.30;99.90
15617;DHT22;7908;51.688;7.130;2023-03-23T04:51:49;11.20;99.90
15617;DHT22;7908;51.688;7.130;2023-03-23T04:54:17;11.30;99.90
15617;DHT22;7908;51.688;7.130;2023-03-23T04:56:45;11.30;99.90
15617;DHT22;7908;51.688;7.130;2023-03-23T04:59:14;11.30;99.90
15617;DHT22;7908;51.688;7.130;2023-03-23T05:01:42;11.30;99.90
15617;DHT22;7908;51.688;7.130;2023-03-23T05:04:11;11.30;99.90
15617;DHT22;7908;51.688;7.130;2023-03-23T05:06:42;11.30;99.90
15617;DHT22;7908;51.688;7.130;2023-03-23T05:09:11;11.30;99.90
15617;DHT22;7908;51.688;7.130;2023-03-23T05:11:39;11.30;99.90
15617;DHT22;7908;51.688;7.130;2023-03-23T05:14:06;11.30;99.90
15617;DHT22;7908;51.688;7.130;2023-03-23T05:16:36;11.30;99.90
15617;DHT22;7908;51.688;7.130;2023-03-23T05:19:04;11.30;99.90
15617;DHT22;7908;51.688;7.130;2023-03-23T05:21:33;11.30;99.90
15617;DHT22;7908;51.688;7.130;2023-03-23T05:24:01;11.30;99.90
15617;DHT22;7908;51.688;7.130;2023-03-23T05:26:28;11.40;99.90
15617;DHT22;7908;51.688;7.130;2023-03-23T05:28:56;11.40;99.90
15617;DHT22;7908;51.688;7.130;2023-03-23T05:31:24;11.40;99.90
15617;DHT22;7908;51.688;7.130;2023-03-23T05:33:54;11.40;99.90
15617;DHT22;7908;51.688;7.130;2023-03-23T05:36:21;11.40;99.90
15617;DHT22;7908;51.688;7.130;2023-03-23T05:38:51;11.40;99.90
15617;DHT22;7908;51.688;7.130;2023-03-23T05:41:18;11.40;99.90
15617;DHT22;7908;51.688;7.130;2023-03-23T05:43:46;11.40;99.90
15617;DHT22;7908;51.688;7.130;2023-03-23T05:46:14;11.50;99.90
15617;DHT22;7908;51.688;7.130;2023-03-23T05:48:41;11.50;99.90
15617;DHT22;7908;51.688;7.130;2023-03-23T05:51:10;11.50;99.90
15617;DHT22;7908;51.688;7.130;2023-03-23T05:53:38;11.50;99.90
15617;DHT22;7908;51.688;7.130;2023-03-23T05:56:05;11.40;99.90
15617;DHT22;7908;51.688;7.130;2023-03-23T05:58:34;11.50;99.90
15617;DHT22;7908;51.688;7.130;2023-03-23T06:01:06;11.50;99.90
15617;DHT22;7908;51.688;7.130;2023-03-23T06:03:33;11.50;99.90
15617;DHT22;7908;51.688;7.130;2023-03-23T06:06:02;11.50;99.90
15617;DHT22;7908;51.688;7.130;2023-03-23T06:08:31;11.50;99.90
15617;DHT22;7908;51.688;7.130;2023-03-23T06:10:58;11.60;99.90
15617;DHT22;7908;51.688;7.130;2023-03-23T06:13:26;11.60;99.90
15617;DHT22;7908;51.688;7.130;2023-03-23T06:15:55;11.60;99.90
15617;DHT22;7908;51.688;7.130;2023-03-23T06:18:23;11.60;99.90
15617;DHT22;7908;51.688;7.130;2023-03-23T06:20:53;11.60;99.90
15617;DHT22;7908;51.688;7.130;2023-03-23T06:23:20;11.70;99.90
15617;DHT22;7908;51.688;7.130;2023-03-23T06:25:49;11.70;99.90
15617;DHT22;7908;51.688;7.130;2023-03-23T06:28:20;11.70;99.90
15617;DHT22;7908;51.688;7.130;2023-03-23T06:30:48;11.70;99.90
15617;DHT22;7908;51.688;7.130;2023-03-23T06:33:15;11.70;99.90
15617;DHT22;7908;51.688;7.130;2023-03-23T06:35:44;11.70;99.90
15617;DHT22;7908;51.688;7.130;2023-03-23T06:38:11;11.70;99.90
15617;DHT22;7908;51.688;7.130;2023-03-23T06:40:39;11.80;99.90
15617;DHT22;7908;51.688;7.130;2023-03-23T06:43:08;11.80;99.90
15617;DHT22;7908;51.688;7.130;2023-03-23T06:45:36;11.80;99.90
15617;DHT22;7908;51.688;7.130;2023-03-23T06:48:04;11.80;99.90
15617;DHT22;7908;51.688;7.130;2023-03-23T06:50:32;11.90;99.90
15617;DHT22;7908;51.688;7.130;2023-03-23T06:52:59;11.90;99.90
15617;DHT22;7908;51.688;7.130;2023-03-23T06:55:27;11.90;99.90
15617;DHT22;7908;51.688;7.130;2023-03-23T06:57:54;12.00;99.90
15617;DHT22;7908;51.688;7.130;2023-03-23T07:00:24;12.00;99.90
15617;DHT22;7908;51.688;7.130;2023-03-23T07:02:51;12.10;99.90
15617;DHT22;7908;51.688;7.130;2023-03-23T07:05:19;12.10;99.90
15617;DHT22;7908;51.688;7.130;2023-03-23T07:07:46;12.10;99.90
15617;DHT22;7908;51.688;7.130;2023-03-23T07:10:14;12.20;99.90
15617;DHT22;7908;51.688;7.130;2023-03-23T07:12:42;12.10;99.90
15617;DHT22;7908;51.688;7.130;2023-03-23T07:15:10;12.20;99.90
15617;DHT22;7908;51.688;7.130;2023-03-23T07:17:40;12.20;99.90
15617;DHT22;7908;51.688;7.130;2023-03-23T07:20:08;12.20;99.90
15617;DHT22;7908;51.688;7.130;2023-03-23T07:22:36;12.30;99.90
15617;DHT22;7908;51.688;7.130;2023-03-23T07:25:04;12.30;99.90
15617;DHT22;7908;51.688;7.130;2023-03-23T07:27:32;12.40;99.90
15617;DHT22;7908;51.688;7.130;2023-03-23T07:30:00;12.40;99.90
15617;DHT22;7908;51.688;7.130;2023-03-23T07:32:27;12.40;99.90
15617;DHT22;7908;51.688;7.130;2023-03-23T07:34:56;12.50;99.90
15617;DHT22;7908;51.688;7.130;2023-03-23T07:37:24;12.50;99.90
15617;DHT22;7908;51.688;7.130;2023-03-23T07:39:54;12.50;99.90
15617;DHT22;7908;51.688;7.130;2023-03-23T07:42:21;12.50;99.90
15617;DHT22;7908;51.688;7.130;2023-03-23T07:44:49;12.50;99.90
15617;DHT22;7908;51.688;7.130;2023-03-23T07:47:17;12.50;99.90
15617;DHT22;7908;51.688;7.130;2023-03-23T07:49:45;12.60;99.90
15617;DHT22;7908;51.688;7.130;2023-03-23T07:52:14;12.60;99.90
15617;DHT22;7908;51.688;7.130;2023-03-23T07:54:41;12.60;99.90
15617;DHT22;7908;51.688;7.130;2023-03-23T07:57:09;12.50;99.90
15617;DHT22;7908;51.688;7.130;2023-03-23T07:59:38;12.60;99.90
15617;DHT22;7908;51.688;7.130;2023-03-23T08:02:07;12.60;99.90
15617;DHT22;7908;51.688;7.130;2023-03-23T08:04:35;12.70;99.90
15617;DHT22;7908;51.688;7.130;2023-03-23T08:07:04;12.70;99.90
15617;DHT22;7908;51.688;7.130;2023-03-23T08:09:33;12.80;99.90
15617;DHT22;7908;51.688;7.130;2023-03-23T08:12:01;12.90;99.90
15617;DHT22;7908;51.688;7.130;2023-03-23T08:14:29;12.90;99.90
15617;DHT22;7908;51.688;7.130;2023-03-23T08:16:58;12.90;99.90
15617;DHT22;7908;51.688;7.130;2023-03-23T08:19:26;13.00;99.90
15617;DHT22;7908;51.688;7.130;2023-03-23T08:21:53;13.10;99.90
15617;DHT22;7908;51.688;7.130;2023-03-23T08:24:21;13.10;99.90
15617;DHT22;7908;51.688;7.130;2023-03-23T08:26:50;13.20;99.90
15617;DHT22;7908;51.688;7.130;2023-03-23T08:29:17;13.20;99.90
15617;DHT22;7908;51.688;7.130;2023-03-23T08:31:46;13.20;99.90
15617;DHT22;7908;51.688;7.130;2023-03-23T08:34:13;13.20;99.90
15617;DHT22;7908;51.688;7.130;2023-03-23T08:36:42;13.30;99.90
15617;DHT22;7908;51.688;7.130;2023-03-23T08:39:12;13.30;99.90
15617;DHT22;7908;51.688;7.130;2023-03-23T08:41:40;13.30;99.90
15617;DHT22;7908;51.688;7.130;2023-03-23T08:44:09;13.20;99.90
15617;DHT22;7908;51.688;7.130;2023-03-23T08:46:36;13.20;99.90
15617;DHT22;7908;51.688;7.130;2023-03-23T08:49:05;13.10;99.90
15617;DHT22;7908;51.688;7.130;2023-03-23T08:51:34;13.00;99.90
15617;DHT22;7908;51.688;7.130;2023-03-23T08:54:02;13.00;99.90
15617;DHT22;7908;51.688;7.130;2023-03-23T08:56:30;12.90;99.90
15617;DHT22;7908;51.688;7.130;2023-03-23T08:58:57;12.80;99.90
15617;DHT22;7908;51.688;7.130;2023-03-23T09:01:27;12.70;99.90
15617;DHT22;7908;51.688;7.130;2023-03-23T09:03:54;12.40;99.90
15617;DHT22;7908;51.688;7.130;2023-03-23T09:06:22;12.20;99.90
15617;DHT22;7908;51.688;7.130;2023-03-23T09:08:49;12.10;99.90
15617;DHT22;7908;51.688;7.130;2023-03-23T09:11:17;12.10;99.90
15617;DHT22;7908;51.688;7.130;2023-03-23T09:13:44;12.00;99.90
15617;DHT22;7908;51.688;7.130;2023-03-23T09:16:12;12.00;99.90
15617;DHT22;7908;51.688;7.130;2023-03-23T09:18:41;12.00;99.90
15617;DHT22;7908;51.688;7.130;2023-03-23T09:21:11;12.00;99.90
15617;DHT22;7908;51.688;7.130;2023-03-23T09:23:40;12.00;99.90
15617;DHT22;7908;51.688;7.130;2023-03-23T09:26:11;12.10;99.90
15617;DHT22;7908;51.688;7.130;2023-03-23T09:28:39;12.10;99.90
15617;DHT22;7908;51.688;7.130;2023-03-23T09:31:07;12.20;99.90
15617;DHT22;7908;51.688;7.130;2023-03-23T09:33:34;12.20;99.90
15617;DHT22;7908;51.688;7.130;2023-03-23T09:36:04;12.20;99.90
15617;DHT22;7908;51.688;7.130;2023-03-23T09:38:34;12.10;99.90
15617;DHT22;7908;51.688;7.130;2023-03-23T09:41:12;11.80;99.90
15617;DHT22;7908;51.688;7.130;2023-03-23T09:43:54;11.20;99.90
15617;DHT22;7908;51.688;7.130;2023-03-23T09:46:44;10.70;99.90
15617;DHT22;7908;51.688;7.130;2023-03-23T09:49:16;10.40;99.90
15617;DHT22;7908;51.688;7.130;2023-03-23T09:51:50;10.10;99.90
15617;DHT22;7908;51.688;7.130;2023-03-23T09:54:21;10.00;99.90
15617;DHT22;7908;51.688;7.130;2023-03-23T09:56:50;10.00;99.90
15617;DHT22;7908;51.688;7.130;2023-03-23T09:59:27;9.90;99.90
15617;DHT22;7908;51.688;7.130;2023-03-23T10:01:58;10.00;99.90
15617;DHT22;7908;51.688;7.130;2023-03-23T10:04:32;10.00;99.90
15617;DHT22;7908;51.688;7.130;2023-03-23T10:07:10;10.00;99.90
15617;DHT22;7908;51.688;7.130;2023-03-23T10:09:38;10.00;99.90
15617;DHT22;7908;51.688;7.130;2023-03-23T10:12:19;10.10;99.90
15617;DHT22;7908;51.688;7.130;2023-03-23T10:14:57;10.20;99.90
15617;DHT22;7908;51.688;7.130;2023-03-23T10:17:29;10.40;99.90
15617;DHT22;7908;51.688;7.130;2023-03-23T10:20:15;10.50;99.90
15617;DHT22;7908;51.688;7.130;2023-03-23T10:22:53;10.70;99.90
15617;DHT22;7908;51.688;7.130;2023-03-23T10:25:24;10.80;99.90
15617;DHT22;7908;51.688;7.130;2023-03-23T10:27:59;10.80;99.90
15617;DHT22;7908;51.688;7.130;2023-03-23T10:30:31;10.70;99.90
15617;DHT22;7908;51.688;7.130;2023-03-23T10:33:03;10.70;99.90
15617;DHT22;7908;51.688;7.130;2023-03-23T10:35:39;10.60;99.90
15617;DHT22;7908;51.688;7.130;2023-03-23T10:38:16;10.60;99.90
15617;DHT22;7908;51.688;7.130;2023-03-23T10:40:50;10.60;99.90
15617;DHT22;7908;51.688;7.130;2023-03-23T10:43:19;10.50;99.90
15617;DHT22;7908;51.688;7.130;2023-03-23T10:45:50;10.50;99.90
15617;DHT22;7908;51.688;7.130;2023-03-23T10:48:22;10.40;99.90
15617;DHT22;7908;51.688;7.130;2023-03-23T10:50:55;10.50;99.90
15617;DHT22;7908;51.688;7.130;2023-03-23T10:53:28;10.50;99.90
15617;DHT22;7908;51.688;7.130;2023-03-23T10:55:58;10.60;99.90
15617;DHT22;7908;51.688;7.130;2023-03-23T10:58:28;10.60;99.90
15617;DHT22;7908;51.688;7.130;2023-03-23T11:00:58;10.70;99.90
15617;DHT22;7908;51.688;7.130;2023-03-23T11:03:38;10.70;99.90
15617;DHT22;7908;51.688;7.130;2023-03-23T11:06:08;10.70;99.90
15617;DHT22;7908;51.688;7.130;2023-03-23T11:08:47;10.70;99.90
15617;DHT22;7908;51.688;7.130;2023-03-23T11:11:17;10.80;99.90
15617;DHT22;7908;51.688;7.130;2023-03-23T11:13:48;10.80;99.90
15617;DHT22;7908;51.688;7.130;2023-03-23T11:16:24;10.80;99.90
15617;DHT22;7908;51.688;7.130;2023-03-23T11:18:53;10.80;99.90
15617;DHT22;7908;51.688;7.130;2023-03-23T11:21:22;10.80;99.90
15617;DHT22;7908;51.688;7.130;2023-03-23T11:23:53;10.80;99.90
15617;DHT22;7908;51.688;7.130;2023-03-23T11:26:23;10.90;99.90
15617;DHT22;7908;51.688;7.130;2023-03-23T11:28:56;10.90;99.90
15617;DHT22;7908;51.688;7.130;2023-03-23T11:31:29;10.80;99.90
15617;DHT22;7908;51.688;7.130;2023-03-23T11:33:59;10.80;99.90
15617;DHT22;7908;51.688;7.130;2023-03-23T11:36:35;10.80;99.90
15617;DHT22;7908;51.688;7.130;2023-03-23T11:39:19;10.90;99.90
15617;DHT22;7908;51.688;7.130;2023-03-23T11:41:48;10.90;99.90
15617;DHT22;7908;51.688;7.130;2023-03-23T11:44:16;10.90;99.90
15617;DHT22;7908;51.688;7.130;2023-03-23T11:46:55;11.00;99.90
15617;DHT22;7908;51.688;7.130;2023-03-23T11:49:35;11.20;99.90
15617;DHT22;7908;51.688;7.130;2023-03-23T11:52:13;11.20;99.90
15617;DHT22;7908;51.688;7.130;2023-03-23T11:54:48;11.40;99.90
15617;DHT22;7908;51.688;7.130;2023-03-23T11:57:17;11.40;99.90
15617;DHT22;7908;51.688;7.130;2023-03-23T11:59:45;11.50;99.90
15617;DHT22;7908;51.688;7.130;2023-03-23T12:02:36;11.50;99.90
15617;DHT22;7908;51.688;7.130;2023-03-23T12:05:38;11.50;99.90
15617;DHT22;7908;51.688;7.130;2023-03-23T12:08:19;11.60;99.90
15617;DHT22;7908;51.688;7.130;2023-03-23T12:10:57;11.60;99.90
15617;DHT22;7908;51.688;7.130;2023-03-23T12:13:46;11.60;99.90
15617;DHT22;7908;51.688;7.130;2023-03-23T12:16:26;11.60;99.90
15617;DHT22;7908;51.688;7.130;2023-03-23T12:19:03;11.60;99.90
15617;DHT22;7908;51.688;7.130;2023-03-23T12:21:41;11.60;99.90
15617;DHT22;7908;51.688;7.130;2023-03-23T12:24:17;11.60;99.90
15617;DHT22;7908;51.688;7.130;2023-03-23T12:26:56;11.70;99.90
15617;DHT22;7908;51.688;7.130;2023-03-23T12:29:39;11.60;99.90
15617;DHT22;7908;51.688;7.130;2023-03-23T12:32:26;11.60;99.90
15617;DHT22;7908;51.688;7.130;2023-03-23T12:35:04;11.70;99.90
15617;DHT22;7908;51.688;7.130;2023-03-23T12:37:46;11.80;99.90
15617;DHT22;7908;51.688;7.130;2023-03-23T12:40:37;11.70;99.90
15617;DHT22;7908;51.688;7.130;2023-03-23T12:43:18;11.70;99.90
15617;DHT22;7908;51.688;7.130;2023-03-23T12:46:07;11.80;99.90
15617;DHT22;7908;51.688;7.130;2023-03-23T12:48:40;12.00;99.90
15617;DHT22;7908;51.688;7.130;2023-03-23T12:51:14;12.10;99.90
15617;DHT22;7908;51.688;7.130;2023-03-23T12:53:50;12.20;99.90
15617;DHT22;7908;51.688;7.130;2023-03-23T12:56:25;12.30;99.90
15617;DHT22;7908;51.688;7.130;2023-03-23T12:59:01;12.30;99.90
15617;DHT22;7908;51.688;7.130;2023-03-23T13:01:32;12.30;99.90
15617;DHT22;7908;51.688;7.130;2023-03-23T13:04:06;12.20;99.90
15617;DHT22;7908;51.688;7.130;2023-03-23T13:06:36;12.20;99.90
15617;DHT22;7908;51.688;7.130;2023-03-23T13:09:19;12.20;99.90
15617;DHT22;7908;51.688;7.130;2023-03-23T13:11:49;12.20;99.90
15617;DHT22;7908;51.688;7.130;2023-03-23T13:14:27;12.40;99.90
15617;DHT22;7908;51.688;7.130;2023-03-23T13:17:05;12.50;99.90
15617;DHT22;7908;51.688;7.130;2023-03-23T13:19:46;12.60;99.90
15617;DHT22;7908;51.688;7.130;2023-03-23T13:22:19;12.60;99.90
15617;DHT22;7908;51.688;7.130;2023-03-23T13:24:52;12.70;99.90
15617;DHT22;7908;51.688;7.130;2023-03-23T13:27:23;12.80;99.90
15617;DHT22;7908;51.688;7.130;2023-03-23T13:29:53;12.90;99.90
15617;DHT22;7908;51.688;7.130;2023-03-23T13:32:28;13.00;99.90
15617;DHT22;7908;51.688;7.130;2023-03-23T13:35:01;13.00;99.90
15617;DHT22;7908;51.688;7.130;2023-03-23T13:37:30;12.90;99.90
15617;DHT22;7908;51.688;7.130;2023-03-23T13:40:16;12.90;99.90
15617;DHT22;7908;51.688;7.130;2023-03-23T13:42:49;12.80;99.90
15617;DHT22;7908;51.688;7.130;2023-03-23T13:45:24;12.80;99.90
15617;DHT22;7908;51.688;7.130;2023-03-23T13:48:17;12.80;99.90
15617;DHT22;7908;51.688;7.130;2023-03-23T13:50:51;12.90;99.90
15617;DHT22;7908;51.688;7.130;2023-03-23T13:53:25;13.00;99.90
15617;DHT22;7908;51.688;7.130;2023-03-23T13:56:12;13.00;99.90
15617;DHT22;7908;51.688;7.130;2023-03-23T13:58:47;13.10;99.90
15617;DHT22;7908;51.688;7.130;2023-03-23T14:01:18;13.20;99.90
15617;DHT22;7908;51.688;7.130;2023-03-23T14:03:48;13.20;99.90
15617;DHT22;7908;51.688;7.130;2023-03-23T14:06:19;13.10;99.90
15617;DHT22;7908;51.688;7.130;2023-03-23T14:08:50;13.10;99.90
15617;DHT22;7908;51.688;7.130;2023-03-23T14:11:22;13.10;99.90
15617;DHT22;7908;51.688;7.130;2023-03-23T14:14:00;13.10;99.90
15617;DHT22;7908;51.688;7.130;2023-03-23T14:16:37;13.20;99.90
15617;DHT22;7908;51.688;7.130;2023-03-23T14:19:24;13.20;99.90
15617;DHT22;7908;51.688;7.130;2023-03-23T14:21:56;13.20;99.90
15617;DHT22;7908;51.688;7.130;2023-03-23T14:24:26;13.30;99.90
15617;DHT22;7908;51.688;7.130;2023-03-23T14:27:02;13.30;99.90
15617;DHT22;7908;51.688;7.130;2023-03-23T14:29:39;13.20;99.90
15617;DHT22;7908;51.688;7.130;2023-03-23T14:32:13;13.20;99.90
15617;DHT22;7908;51.688;7.130;2023-03-23T14:34:42;13.30;99.90
15617;DHT22;7908;51.688;7.130;2023-03-23T14:37:12;13.20;99.90
15617;DHT22;7908;51.688;7.130;2023-03-23T14:39:45;13.30;99.90
15617;DHT22;7908;51.688;7.130;2023-03-23T14:42:16;13.30;99.90
15617;DHT22;7908;51.688;7.130;2023-03-23T14:44:46;13.30;99.90
15617;DHT22;7908;51.688;7.130;2023-03-23T14:47:20;13.30;99.90
15617;DHT22;7908;51.688;7.130;2023-03-23T14:49:53;13.20;99.90
15617;DHT22;7908;51.688;7.130;2023-03-23T14:52:24;13.20;99.90
15617;DHT22;7908;51.688;7.130;2023-03-23T14:55:06;13.20;99.90
15617;DHT22;7908;51.688;7.130;2023-03-23T14:57:40;13.20;99.90
15617;DHT22;7908;51.688;7.130;2023-03-23T15:00:13;13.30;99.90
15617;DHT22;7908;51.688;7.130;2023-03-23T15:02:45;13.40;99.90
15617;DHT22;7908;51.688;7.130;2023-03-23T15:05:15;13.40;99.90
15617;DHT22;7908;51.688;7.130;2023-03-23T15:07:54;13.40;99.90
15617;DHT22;7908;51.688;7.130;2023-03-23T15:10:23;13.40;99.90
15617;DHT22;7908;51.688;7.130;2023-03-23T15:12:52;13.30;99.90
15617;DHT22;7908;51.688;7.130;2023-03-23T15:15:26;13.30;99.90
15617;DHT22;7908;51.688;7.130;2023-03-23T15:17:56;13.30;99.90
15617;DHT22;7908;51.688;7.130;2023-03-23T15:20:29;13.20;99.90
15617;DHT22;7908;51.688;7.130;2023-03-23T15:23:05;13.30;99.90
15617;DHT22;7908;51.688;7.130;2023-03-23T15:25:34;13.30;99.90
15617;DHT22;7908;51.688;7.130;2023-03-23T15:28:16;13.30;99.90
15617;DHT22;7908;51.688;7.130;2023-03-23T15:30:47;13.30;99.90
15617;DHT22;7908;51.688;7.130;2023-03-23T15:33:18;13.30;99.90
15617;DHT22;7908;51.688;7.130;2023-03-23T15:35:53;13.30;99.90
15617;DHT22;7908;51.688;7.130;2023-03-23T15:38:22;13.40;99.90
15617;DHT22;7908;51.688;7.130;2023-03-23T15:40:51;13.40;99.90
15617;DHT22;7908;51.688;7.130;2023-03-23T15:43:22;13.40;99.90
15617;DHT22;7908;51.688;7.130;2023-03-23T15:45:55;13.30;99.90
15617;DHT22;7908;51.688;7.130;2023-03-23T15:48:28;13.30;99.90
15617;DHT22;7908;51.688;7.130;2023-03-23T15:50:56;13.40;99.90
15617;DHT22;7908;51.688;7.130;2023-03-23T15:53:30;13.50;99.90
15617;DHT22;7908;51.688;7.130;2023-03-23T15:56:01;13.50;99.90
15617;DHT22;7908;51.688;7.130;2023-03-23T15:58:29;13.50;99.90
15617;DHT22;7908;51.688;7.130;2023-03-23T16:01:01;13.50;99.90
15617;DHT22;7908;51.688;7.130;2023-03-23T16:03:37;13.40;99.90
15617;DHT22;7908;51.688;7.130;2023-03-23T16:06:10;13.40;99.90
15617;DHT22;7908;51.688;7.130;2023-03-23T16:08:51;13.40;99.90
15617;DHT22;7908;51.688;7.130;2023-03-23T16:11:23;13.30;99.90
15617;DHT22;7908;51.688;7.130;2023-03-23T16:13:52;13.30;99.90
15617;DHT22;7908;51.688;7.130;2023-03-23T16:16:23;13.20;99.90
15617;DHT22;7908;51.688;7.130;2023-03-23T16:18:58;13.10;99.90